createdAt,value
2023-02-19T00:01:41.243Z,10.59
2023-02-19T00:04:11.959Z,10.59
2023-02-19T00:06:41.792Z,10.64
2023-02-19T00:09:10.938Z,10.58
2023-02-19T00:11:38.942Z,10.58
2023-02-19T00:14:07.413Z,10.64
2023-02-19T00:16:36.477Z,10.60
2023-02-19T00:19:06.313Z,10.66
2023-02-19T00:21:34.395Z,10.64
2023-02-19T00:24:06.316Z,10.69
2023-02-19T00:26:34.692Z,10.77
2023-02-19T00:29:03.302Z,10.71
2023-02-19T00:31:33.377Z,10.76
2023-02-19T00:34:02.569Z,10.89
2023-02-19T00:36:31.517Z,10.86
2023-02-19T00:38:59.867Z,10.92
2023-02-19T00:41:29.059Z,10.84
2023-02-19T00:43:58.045Z,10.78
2023-02-19T00:46:27.989Z,10.83
2023-02-19T00:48:56.575Z,10.77
2023-02-19T00:51:25.869Z,10.70
2023-02-19T00:53:54.011Z,10.73
2023-02-19T00:56:21.825Z,10.82
2023-02-19T00:58:51.374Z,10.89
2023-02-19T01:01:19.336Z,10.93
2023-02-19T01:03:47.218Z,10.80
2023-02-19T01:06:16.940Z,10.94
2023-02-19T01:08:45.275Z,10.85
2023-02-19T01:11:13.589Z,10.84
2023-02-19T01:13:41.923Z,10.93
2023-02-19T01:16:15.087Z,10.95
2023-02-19T01:18:43.514Z,10.82
2023-02-19T01:21:13.681Z,10.80
2023-02-19T01:23:41.652Z,10.85
2023-02-19T01:26:10.994Z,10.85
2023-02-19T01:28:38.928Z,10.81
2023-02-19T01:31:09.051Z,10.79
2023-02-19T01:33:38.739Z,10.80
2023-02-19T01:36:07.530Z,10.74
2023-02-19T01:38:35.189Z,10.77
2023-02-19T01:41:05.670Z,10.72
2023-02-19T01:43:33.765Z,10.71
2023-02-19T01:46:01.798Z,10.70
2023-02-19T01:48:33.437Z,10.75
2023-02-19T01:51:06.752Z,10.80
2023-02-19T01:53:38.017Z,10.74
2023-02-19T01:56:06.457Z,10.64
2023-02-19T01:58:35.898Z,10.60
2023-02-19T02:01:06.605Z,10.67
2023-02-19T02:07:48.652Z,10.60
2023-02-19T02:10:22.385Z,10.69
2023-02-19T02:12:51.072Z,10.68
2023-02-19T02:15:19.460Z,10.66
2023-02-19T02:17:53.855Z,10.65
2023-02-19T02:20:33.893Z,10.75
2023-02-19T02:23:10.266Z,10.66
2023-02-19T02:26:02.105Z,10.70
2023-02-19T02:28:47.960Z,10.74
2023-02-19T02:31:18.985Z,10.67
2023-02-19T02:33:51.424Z,10.64
2023-02-19T02:36:21.204Z,10.54
2023-02-19T02:38:50.043Z,10.49
2023-02-19T02:41:17.817Z,10.54
2023-02-19T02:43:45.526Z,10.51
2023-02-19T02:46:14.026Z,10.48
2023-02-19T02:48:46.082Z,10.42
2023-02-19T02:51:18.532Z,10.30
2023-02-19T02:54:07.390Z,10.17
2023-02-19T02:56:36.151Z,10.13
2023-02-19T02:59:05.526Z,10.17
2023-02-19T03:01:53.434Z,10.15
2023-02-19T03:04:26.139Z,10.06
2023-02-19T03:06:54.896Z,10.04
2023-02-19T03:09:30.078Z,10.02
2023-02-19T03:12:16.114Z,10.12
2023-02-19T03:15:03.996Z,10.19
2023-02-19T03:17:53.462Z,10.06
2023-02-19T03:20:24.637Z,10.25
2023-02-19T03:22:53.561Z,10.33
2023-02-19T03:25:40.709Z,10.35
2023-02-19T03:28:11.768Z,10.51
2023-02-19T03:30:43.106Z,10.46
2023-02-19T03:33:12.579Z,10.39
2023-02-19T03:35:44.136Z,10.37
2023-02-19T03:38:18.759Z,10.34
2023-02-19T03:40:54.072Z,10.33
2023-02-19T03:43:24.260Z,10.28
2023-02-19T03:45:57.695Z,10.41
2023-02-19T03:48:32.940Z,10.22
2023-02-19T03:51:10.212Z,10.34
2023-02-19T03:53:45.060Z,10.26
2023-02-19T03:56:16.313Z,10.20
2023-02-19T03:58:51.582Z,10.15
2023-02-19T04:01:25.816Z,10.23
2023-02-19T04:03:55.568Z,10.19
2023-02-19T04:06:28.377Z,10.27
2023-02-19T04:08:58.224Z,10.29
2023-02-19T04:11:26.740Z,10.20
2023-02-19T04:13:57.977Z,10.27
2023-02-19T04:16:29.425Z,10.11
2023-02-19T04:19:00.442Z,10.19
2023-02-19T04:21:30.663Z,10.28
2023-02-19T04:24:00.697Z,10.29
2023-02-19T04:26:28.706Z,10.22
2023-02-19T04:28:56.592Z,10.24
2023-02-19T04:31:24.952Z,10.16
2023-02-19T04:33:52.662Z,10.27
2023-02-19T04:36:20.384Z,10.22
2023-02-19T04:38:49.454Z,10.16
2023-02-19T04:41:17.097Z,10.25
2023-02-19T04:43:45.016Z,10.27
2023-02-19T04:46:12.684Z,10.17
2023-02-19T04:48:40.348Z,10.16
2023-02-19T04:51:09.059Z,10.15
2023-02-19T04:53:37.513Z,10.14
2023-02-19T04:56:11.799Z,10.13
2023-02-19T04:58:39.674Z,10.16
2023-02-19T05:01:07.847Z,10.05
2023-02-19T05:03:36.088Z,10.07
2023-02-19T05:06:04.747Z,10.15
2023-02-19T05:08:32.446Z,10.05
2023-02-19T05:11:00.636Z,10.14
2023-02-19T05:13:29.705Z,10.16
2023-02-19T05:15:58.464Z,10.14
2023-02-19T05:18:26.653Z,10.09
2023-02-19T05:20:55.016Z,10.12
2023-02-19T05:23:22.879Z,10.12
2023-02-19T05:25:50.694Z,10.05
2023-02-19T05:28:18.571Z,10.04
2023-02-19T05:30:48.989Z,10.12
2023-02-19T05:33:17.407Z,10.05
2023-02-19T05:35:46.211Z,10.05
2023-02-19T05:38:14.103Z,10.01
2023-02-19T05:40:42.316Z,10.04
2023-02-19T05:43:10.455Z,10.14
2023-02-19T05:45:38.469Z,10.07
2023-02-19T05:48:08.340Z,10.02
2023-02-19T05:50:39.683Z,9.92
2023-02-19T05:53:07.682Z,9.85
2023-02-19T05:55:36.357Z,9.74
2023-02-19T05:58:04.264Z,9.69
2023-02-19T06:00:33.248Z,9.76
2023-02-19T06:03:01.228Z,9.79
2023-02-19T06:05:30.428Z,9.73
2023-02-19T06:07:58.073Z,9.66
2023-02-19T06:10:25.739Z,9.75
2023-02-19T06:12:54.180Z,9.69
2023-02-19T06:15:22.133Z,9.57
2023-02-19T06:17:50.314Z,9.70
2023-02-19T06:20:18.315Z,9.67
2023-02-19T06:22:47.535Z,9.72
2023-02-19T06:25:15.229Z,9.72
2023-02-19T06:27:42.869Z,9.74
2023-02-19T06:30:12.293Z,9.75
2023-02-19T06:32:40.296Z,9.68
2023-02-19T06:35:08.426Z,9.74
2023-02-19T06:37:36.058Z,9.64
2023-02-19T06:40:05.637Z,9.62
2023-02-19T06:42:33.662Z,9.66
2023-02-19T06:45:01.552Z,9.69
2023-02-19T06:47:32.268Z,9.68
2023-02-19T06:49:59.958Z,9.72
2023-02-19T06:52:27.890Z,9.62
2023-02-19T06:54:55.739Z,9.73
2023-02-19T06:57:24.809Z,9.73
2023-02-19T06:59:52.439Z,9.69
2023-02-19T07:02:20.238Z,9.70
2023-02-19T07:04:47.845Z,9.74
2023-02-19T07:07:15.450Z,9.70
2023-02-19T07:09:43.080Z,9.78
2023-02-19T07:12:11.427Z,9.79
2023-02-19T07:14:40.459Z,9.70
2023-02-19T07:17:08.119Z,9.70
2023-02-19T07:19:37.961Z,9.76
2023-02-19T07:22:05.911Z,9.63
2023-02-19T07:24:33.582Z,9.63
2023-02-19T07:27:01.249Z,9.62
2023-02-19T07:29:28.928Z,9.63
2023-02-19T07:31:58.032Z,9.69
2023-02-19T07:34:25.904Z,9.56
2023-02-19T07:36:53.594Z,9.60
2023-02-19T07:39:21.429Z,9.58
2023-02-19T07:41:49.088Z,9.49
2023-02-19T07:44:17.116Z,9.47
2023-02-19T07:46:44.866Z,9.41
2023-02-19T07:49:13.926Z,9.41
2023-02-19T07:51:41.711Z,9.37
2023-02-19T07:54:09.653Z,9.38
2023-02-19T07:56:37.296Z,9.30
2023-02-19T07:59:04.948Z,9.22
2023-02-19T08:01:58.404Z,8.98
2023-02-19T08:04:27.734Z,8.26
2023-02-19T08:06:55.797Z,8.04
2023-02-19T08:09:23.662Z,7.94
2023-02-19T08:12:09.179Z,7.88
2023-02-19T08:14:37.021Z,8.03
2023-02-19T08:17:04.705Z,8.00
2023-02-19T08:19:33.798Z,8.06
2023-02-19T08:22:01.443Z,7.69
2023-02-19T08:24:29.113Z,7.72
2023-02-19T08:26:56.854Z,7.85
2023-02-19T08:29:24.697Z,7.96
2023-02-19T08:31:52.400Z,7.86
2023-02-19T08:34:20.089Z,7.96
2023-02-19T08:36:49.171Z,7.82
2023-02-19T08:39:17.673Z,7.45
2023-02-19T08:41:46.208Z,7.82
2023-02-19T08:44:13.878Z,7.80
2023-02-19T08:46:41.780Z,7.76
2023-02-19T08:49:09.579Z,7.72
2023-02-19T08:51:37.351Z,7.62
2023-02-19T08:54:06.543Z,7.45
2023-02-19T08:56:34.207Z,7.53
2023-02-19T08:59:01.817Z,7.48
2023-02-19T09:01:29.521Z,7.29
2023-02-19T09:03:57.292Z,7.44
2023-02-19T09:06:24.954Z,7.55
2023-02-19T09:08:52.678Z,7.64
2023-02-19T09:11:21.746Z,7.88
2023-02-19T09:13:49.364Z,7.77
2023-02-19T09:16:17.231Z,7.92
2023-02-19T09:18:45.804Z,7.96
2023-02-19T09:21:13.741Z,7.96
2023-02-19T09:23:41.511Z,7.71
2023-02-19T09:26:11.376Z,7.78
2023-02-19T09:28:43.137Z,7.71
2023-02-19T09:31:13.359Z,7.71
2023-02-19T09:33:43.758Z,7.82
2023-02-19T09:36:11.901Z,7.78
2023-02-19T09:38:40.578Z,7.64
2023-02-19T09:41:10.763Z,7.69
2023-02-19T09:43:40.068Z,8.06
2023-02-19T09:46:11.874Z,8.00
2023-02-19T09:48:39.679Z,8.05
2023-02-19T09:51:09.354Z,8.26
2023-02-19T09:53:42.392Z,8.28
2023-02-19T09:56:10.140Z,8.38
2023-02-19T09:58:44.643Z,8.20
2023-02-19T10:01:13.541Z,8.01
2023-02-19T10:03:44.360Z,8.15
2023-02-19T10:06:19.045Z,8.11
2023-02-19T10:08:47.236Z,8.48
2023-02-19T10:11:15.279Z,8.50
2023-02-19T10:13:47.797Z,8.62
2023-02-19T10:16:19.094Z,8.20
2023-02-19T10:18:47.549Z,8.88
2023-02-19T10:21:19.545Z,8.27
2023-02-19T10:23:48.702Z,8.23
2023-02-19T10:26:16.471Z,8.80
2023-02-19T10:28:45.623Z,9.15
2023-02-19T10:31:20.568Z,9.13
2023-02-19T10:33:52.729Z,8.97
2023-02-19T10:36:28.283Z,8.76
2023-02-19T10:38:57.938Z,8.85
2023-02-19T10:41:26.842Z,8.30
2023-02-19T10:43:58.831Z,8.65
2023-02-19T10:46:28.257Z,8.85
2023-02-19T10:48:57.768Z,8.25
2023-02-19T10:51:32.750Z,8.54
2023-02-19T10:54:08.321Z,8.24
2023-02-19T10:56:38.701Z,8.08
2023-02-19T10:59:25.114Z,8.21
2023-02-19T11:01:57.520Z,8.29
2023-02-19T11:04:26.192Z,9.02
2023-02-19T11:06:54.857Z,8.60
2023-02-19T11:09:28.796Z,8.53
2023-02-19T11:11:58.521Z,9.02
2023-02-19T11:14:28.683Z,8.92
2023-02-19T11:16:58.068Z,8.79
2023-02-19T11:19:30.191Z,9.21
2023-02-19T11:21:58.367Z,9.21
2023-02-19T11:24:31.517Z,8.98
2023-02-19T11:26:59.780Z,9.25
2023-02-19T11:29:34.646Z,9.33
2023-02-19T11:32:29.347Z,9.58
2023-02-19T11:35:17.838Z,9.05
2023-02-19T11:37:59.770Z,9.16
2023-02-19T11:40:41.689Z,9.41
2023-02-19T11:43:19.976Z,9.53
2023-02-19T11:45:53.375Z,9.20
2023-02-19T11:48:31.245Z,9.10
2023-02-19T11:51:06.882Z,8.79
2023-02-19T11:53:37.923Z,8.95
2023-02-19T11:56:16.688Z,9.72
2023-02-19T11:59:00.832Z,9.28
2023-02-19T12:01:45.213Z,9.17
2023-02-19T12:04:28.265Z,9.68
2023-02-19T12:07:02.477Z,10.05
2023-02-19T12:09:46.663Z,10.19
2023-02-19T12:12:25.998Z,9.90
2023-02-19T12:15:10.524Z,10.08
2023-02-19T12:17:51.728Z,9.61
2023-02-19T12:20:25.517Z,10.08
2023-02-19T12:22:59.312Z,9.28
2023-02-19T12:25:34.501Z,9.87
2023-02-19T12:28:15.077Z,10.20
2023-02-19T12:30:53.912Z,10.18
2023-02-19T12:33:36.898Z,10.35
2023-02-19T12:36:10.985Z,10.77
2023-02-19T12:38:45.518Z,10.15
2023-02-19T12:41:21.059Z,10.17
2023-02-19T12:43:54.741Z,10.66
2023-02-19T12:46:26.973Z,10.01
2023-02-19T12:49:00.487Z,9.91
2023-02-19T12:51:31.905Z,10.09
2023-02-19T12:54:03.984Z,9.90
2023-02-19T12:56:35.688Z,10.21
2023-02-19T12:59:06.450Z,10.12
2023-02-19T13:01:39.318Z,10.21
2023-02-19T13:04:19.234Z,9.89
2023-02-19T13:06:53.169Z,10.13
2023-02-19T13:09:23.592Z,9.65
2023-02-19T13:11:55.948Z,9.98
2023-02-19T13:14:28.004Z,9.81
2023-02-19T13:16:59.155Z,9.28
2023-02-19T13:19:28.297Z,9.27
2023-02-19T13:22:20.316Z,9.90
2023-02-19T13:24:48.178Z,9.89
2023-02-19T13:27:35.023Z,9.91
2023-02-19T13:30:11.742Z,9.97
2023-02-19T13:32:51.739Z,9.53
2023-02-19T13:35:27.608Z,9.81
2023-02-19T13:37:56.876Z,9.93
2023-02-19T13:40:32.222Z,9.96
2023-02-19T13:43:01.798Z,9.83
2023-02-19T13:45:34.435Z,9.69
2023-02-19T13:48:15.568Z,9.75
2023-02-19T13:50:44.906Z,9.92
2023-02-19T13:53:47.641Z,10.05
2023-02-19T13:56:38.299Z,9.66
2023-02-19T13:59:24.256Z,10.20
2023-02-19T14:02:14.469Z,9.66
2023-02-19T14:04:51.819Z,9.54
2023-02-19T14:07:51.125Z,9.71
2023-02-19T14:10:52.836Z,9.62
2023-02-19T14:13:54.762Z,9.25
2023-02-19T14:16:31.849Z,9.21
2023-02-19T14:18:59.840Z,9.38
2023-02-19T14:21:36.452Z,9.36
2023-02-19T14:24:08.559Z,9.15
2023-02-19T14:26:36.401Z,8.76
2023-02-19T14:29:04.187Z,8.81
2023-02-19T14:31:33.452Z,9.06
2023-02-19T14:34:03.396Z,8.89
2023-02-19T14:36:35.764Z,8.84
2023-02-19T14:39:06.650Z,8.85
2023-02-19T14:41:37.453Z,8.71
2023-02-19T14:44:07.635Z,9.08
2023-02-19T14:46:39.438Z,8.93
2023-02-19T14:49:14.820Z,9.15
2023-02-19T14:51:44.564Z,9.48
2023-02-19T14:54:17.070Z,9.58
2023-02-19T14:56:45.854Z,9.44
2023-02-19T14:59:25.896Z,9.72
2023-02-19T15:01:58.205Z,9.88
2023-02-19T15:04:27.700Z,9.64
2023-02-19T15:06:57.342Z,9.41
2023-02-19T15:09:32.440Z,9.48
2023-02-19T15:12:02.673Z,9.53
2023-02-19T15:14:32.326Z,9.20
2023-02-19T15:17:02.213Z,9.07
2023-02-19T15:19:30.420Z,8.94
2023-02-19T15:21:58.107Z,9.25
2023-02-19T15:24:28.297Z,9.12
2023-02-19T15:26:56.371Z,9.44
2023-02-19T15:29:25.334Z,8.99
2023-02-19T15:31:54.675Z,8.94
2023-02-19T15:34:24.567Z,8.80
2023-02-19T15:36:54.644Z,8.77
2023-02-19T15:39:24.235Z,8.61
2023-02-19T15:42:00.182Z,8.38
2023-02-19T15:44:33.520Z,8.53
2023-02-19T15:47:07.406Z,8.56
2023-02-19T15:49:42.399Z,8.40
2023-02-19T15:52:12.186Z,8.16
2023-02-19T15:54:44.980Z,8.24
2023-02-19T15:57:19.674Z,8.22
2023-02-19T15:59:50.198Z,8.42
2023-02-19T16:02:18.016Z,8.17
2023-02-19T16:04:46.632Z,8.21
2023-02-19T16:07:25.577Z,8.06
2023-02-19T16:10:07.701Z,8.21
2023-02-19T16:12:36.996Z,7.90
2023-02-19T16:15:13.879Z,8.04
2023-02-19T16:17:44.718Z,7.98
2023-02-19T16:20:20.923Z,7.98
2023-02-19T16:22:48.900Z,7.95
2023-02-19T16:25:28.515Z,7.87
2023-02-19T16:27:59.204Z,7.92
2023-02-19T16:30:33.835Z,7.97
2023-02-19T16:33:21.559Z,8.01
2023-02-19T16:35:52.212Z,7.89
2023-02-19T16:38:20.834Z,8.01
2023-02-19T16:41:08.640Z,8.11
2023-02-19T16:43:42.470Z,7.99
2023-02-19T16:46:11.792Z,7.97
2023-02-19T16:48:39.724Z,7.88
2023-02-19T16:51:09.401Z,7.89
2023-02-19T16:53:37.293Z,7.97
2023-02-19T16:56:05.485Z,7.96
2023-02-19T16:58:33.309Z,7.89
2023-02-19T17:01:02.366Z,7.83
2023-02-19T17:03:30.038Z,8.02
2023-02-19T17:05:58.212Z,8.06
2023-02-19T17:08:34.447Z,8.05
2023-02-19T17:11:03.275Z,7.67
2023-02-19T17:13:31.116Z,7.81
2023-02-19T17:15:59.260Z,7.81
2023-02-19T17:18:28.460Z,7.79
2023-02-19T17:20:59.811Z,7.81
2023-02-19T17:23:27.655Z,7.83
2023-02-19T17:25:55.288Z,7.85
2023-02-19T17:28:23.139Z,7.93
2023-02-19T17:30:50.784Z,7.87
2023-02-19T17:33:18.439Z,7.88
2023-02-19T17:35:47.785Z,7.85
2023-02-19T17:38:15.893Z,8.01
2023-02-19T17:40:45.185Z,7.91
2023-02-19T17:43:13.019Z,7.88
2023-02-19T17:45:40.683Z,8.04
2023-02-19T17:48:10.821Z,8.05
2023-02-19T17:50:38.444Z,8.20
2023-02-19T17:53:07.633Z,8.08
2023-02-19T17:55:35.313Z,8.10
2023-02-19T17:58:03.119Z,7.89
2023-02-19T18:00:32.162Z,7.78
2023-02-19T18:02:59.804Z,7.69
2023-02-19T18:05:27.444Z,7.87
2023-02-19T18:07:55.213Z,7.66
2023-02-19T18:10:25.280Z,7.87
2023-02-19T18:12:53.025Z,7.80
2023-02-19T18:15:22.210Z,7.84
2023-02-19T18:17:50.100Z,7.75
2023-02-19T18:20:21.008Z,7.91
2023-02-19T18:22:48.681Z,7.83
2023-02-19T18:25:17.172Z,7.75
2023-02-19T18:27:46.548Z,7.70
2023-02-19T18:30:17.727Z,7.76
2023-02-19T18:32:47.589Z,7.83
2023-02-19T18:35:16.316Z,7.76
2023-02-19T18:37:44.227Z,7.68
2023-02-19T18:40:13.109Z,7.69
2023-02-19T18:42:40.994Z,7.62
2023-02-19T18:45:10.366Z,7.73
2023-02-19T18:47:38.257Z,7.68
2023-02-19T18:50:08.537Z,7.94
2023-02-19T18:52:36.412Z,7.84
2023-02-19T18:55:04.166Z,7.81
2023-02-19T18:57:31.929Z,7.76
2023-02-19T18:59:59.683Z,7.81
2023-02-19T19:02:36.372Z,7.70
2023-02-19T19:05:10.680Z,7.75
2023-02-19T19:07:38.307Z,7.69
2023-02-19T19:10:07.370Z,7.76
2023-02-19T19:12:35.318Z,7.69
2023-02-19T19:15:03.245Z,7.91
2023-02-19T19:17:32.263Z,7.68
2023-02-19T19:19:59.918Z,7.80
2023-02-19T19:22:27.838Z,7.70
2023-02-19T19:24:55.487Z,7.80
2023-02-19T19:27:23.133Z,7.78
2023-02-19T19:29:51.007Z,7.65
2023-02-19T19:32:25.016Z,7.64
2023-02-19T19:34:54.218Z,7.68
2023-02-19T19:37:21.976Z,7.65
2023-02-19T19:39:50.083Z,7.77
2023-02-19T19:42:17.706Z,7.63
2023-02-19T19:44:47.487Z,7.68
2023-02-19T19:47:16.271Z,7.80
2023-02-19T19:49:44.185Z,7.64
2023-02-19T19:52:13.491Z,7.67
2023-02-19T19:54:42.292Z,7.59
2023-02-19T19:57:10.385Z,7.77
2023-02-19T19:59:39.410Z,7.69
2023-02-19T20:02:08.356Z,7.68
2023-02-19T20:04:36.303Z,7.66
2023-02-19T20:07:04.016Z,7.74
2023-02-19T20:09:33.175Z,7.65
2023-02-19T20:12:00.838Z,7.74
2023-02-19T20:14:29.319Z,7.65
2023-02-19T20:16:57.316Z,7.64
2023-02-19T20:19:24.980Z,7.75
2023-02-19T20:21:53.939Z,7.69
2023-02-19T20:24:24.378Z,7.67
2023-02-19T20:26:54.700Z,7.55
2023-02-19T20:29:22.509Z,7.68
2023-02-19T20:31:50.927Z,7.77
2023-02-19T20:34:19.200Z,7.67
2023-02-19T20:36:48.100Z,7.62
2023-02-19T20:39:16.324Z,7.60
2023-02-19T20:41:45.904Z,7.62
2023-02-19T20:44:15.502Z,7.61
2023-02-19T20:46:43.395Z,7.63
2023-02-19T20:49:11.090Z,7.64
2023-02-19T20:51:44.423Z,7.59
2023-02-19T20:54:12.163Z,7.58
2023-02-19T20:56:44.956Z,7.60
2023-02-19T20:59:13.001Z,7.58
2023-02-19T21:01:42.416Z,7.64
2023-02-19T21:04:10.172Z,7.53
2023-02-19T21:06:37.846Z,7.55
2023-02-19T21:09:05.945Z,7.58
2023-02-19T21:11:33.856Z,7.52
2023-02-19T21:14:01.482Z,7.46
2023-02-19T21:16:31.501Z,7.49
2023-02-19T21:19:00.648Z,7.44
2023-02-19T21:21:30.460Z,7.54
2023-02-19T21:23:59.903Z,7.41
2023-02-19T21:26:34.282Z,7.45
2023-02-19T21:29:02.094Z,7.43
2023-02-19T21:31:37.038Z,7.48
2023-02-19T21:34:07.379Z,7.42
2023-02-19T21:36:35.056Z,7.33
2023-02-19T21:39:02.862Z,7.34
2023-02-19T21:41:30.554Z,7.37
2023-02-19T21:43:58.839Z,7.34
2023-02-19T21:46:26.841Z,7.25
2023-02-19T21:48:56.691Z,7.26
2023-02-19T21:51:32.165Z,7.26
2023-02-19T21:54:00.096Z,7.36
2023-02-19T21:56:30.480Z,7.34
2023-02-19T21:58:58.581Z,7.29
2023-02-19T22:01:28.720Z,7.30
2023-02-19T22:03:56.454Z,7.26
2023-02-19T22:06:26.910Z,7.21
2023-02-19T22:08:57.154Z,7.23
2023-02-19T22:11:24.898Z,7.17
2023-02-19T22:13:52.857Z,7.25
2023-02-19T22:16:20.960Z,7.19
2023-02-19T22:18:49.257Z,7.16
2023-02-19T22:21:17.001Z,7.12
2023-02-19T22:23:46.092Z,7.15
2023-02-19T22:26:21.187Z,7.11
2023-02-19T22:28:48.855Z,7.10
2023-02-19T22:31:17.080Z,7.07
2023-02-19T22:33:44.953Z,7.15
2023-02-19T22:36:16.943Z,7.03
2023-02-19T22:38:44.783Z,7.04
2023-02-19T22:41:12.708Z,6.97
2023-02-19T22:43:41.925Z,7.07
2023-02-19T22:46:12.508Z,7.05
2023-02-19T22:48:40.444Z,6.97
2023-02-19T22:51:13.088Z,6.97
2023-02-19T22:53:44.711Z,7.03
2023-02-19T22:56:13.345Z,6.94
2023-02-19T22:58:43.061Z,6.89
2023-02-19T23:01:11.415Z,6.88
2023-02-19T23:03:46.490Z,6.82
2023-02-19T23:06:14.681Z,6.86
2023-02-19T23:08:43.475Z,6.74
2023-02-19T23:11:11.683Z,6.74
2023-02-19T23:13:39.599Z,6.69
2023-02-19T23:16:08.787Z,6.60
2023-02-19T23:18:36.440Z,6.66
2023-02-19T23:21:04.089Z,6.60
2023-02-19T23:23:32.037Z,6.58
2023-02-19T23:25:59.687Z,6.60
2023-02-19T23:28:27.402Z,6.62
2023-02-19T23:30:55.101Z,6.59
2023-02-19T23:33:24.244Z,6.57
2023-02-19T23:35:51.897Z,6.51
2023-02-19T23:38:19.662Z,6.48
2023-02-19T23:40:47.374Z,6.50
2023-02-19T23:43:15.012Z,6.49
2023-02-19T23:45:42.749Z,6.45
2023-02-19T23:48:10.442Z,6.55
2023-02-19T23:50:39.484Z,6.53
2023-02-19T23:53:07.165Z,6.55
2023-02-19T23:55:34.831Z,6.52
2023-02-19T23:58:02.496Z,6.47
